PWSweather.com
Personal Weather Stations
Station Observations
BREAKEY01
Lévis, Breakeyville, QC G0S 1E1

LévisBreakeyville, QC G0S 1E1

Lat: 46.681, Lon: -71.224

Elevation: 328

Station Type: Davis Vantage Pro2

http://www.meteobreakey.webou.net/topic/index.php

Latest ConditionsUpdated 12:57:03 PM EDT Saturday, Apr 19, 2014
Currently Today's Max Today's Min Today's Average
Temperature 41.5°F5.3°C 43.5°F6.4°C 36.7°F2.6°C 39.9°F4.4°C
Dew Point 28.2°F-2.1°C 35.4°F1.9°C 25.7°F-3.5°C 30.7°F-0.7°C
Winds 12.1 mph NNW19.5 kmh NNW 16.1 mph NW25.9 kmh NW - 5.2 mph 8.4 kmh
Wind Gusts 12.1 mph19.5 kmh 21.9 mph35.2 kmh - -
Humidity 59% 82% 56% 70%
Pressure 30.26 in1024.7 mb 30.26 in1024.7 mb 30.07 in1018.3 mb -
Hour Temp Dew Point Humidity Winds Wind Gusts Pressure Precip Precip Rate Daily Precip Total
12:57 PM 41.5°F5.3°C 28.2°F-2.1°C 59% 12.1 mph NNW19.5 kmh NNW 12.1 mph19.5 kmh 30.26 in1024.7 mb 0.00 in0.0 mm 0.00 in/hr0.0 mm/hr 0.00 in0.0 mm
12:52 PM 42.1°F5.6°C 28.8°F-1.8°C 59% 12.1 mph NNW19.5 kmh NNW 13.0 mph20.9 kmh 30.25 in1024.4 mb 0.00 in0.0 mm 0.00 in/hr0.0 mm/hr 0.00 in0.0 mm
12:47 PM 42.1°F5.6°C 29.1°F-1.6°C 60% 13.0 mph NNW20.9 kmh NNW 12.1 mph19.5 kmh 30.25 in1024.4 mb 0.00 in0.0 mm 0.00 in/hr0.0 mm/hr 0.00 in0.0 mm
12:42 PM 41.7°F5.4°C 29.3°F-1.5°C 61% 15.0 mph NNE24.1 kmh NNE 10.1 mph16.3 kmh 30.25 in1024.4 mb 0.00 in0.0 mm 0.00 in/hr0.0 mm/hr 0.00 in0.0 mm
12:37 PM 41.5°F5.3°C 29.5°F-1.4°C 62% 14.1 mph NW22.7 kmh NW 15.0 mph24.1 kmh 30.25 in1024.4 mb 0.00 in0.0 mm 0.00 in/hr0.0 mm/hr 0.00 in0.0 mm
12:32 PM 42.1°F5.6°C 29.7°F-1.3°C 61% 14.1 mph NW22.7 kmh NW 17.9 mph28.8 kmh 30.25 in1024.4 mb 0.00 in0.0 mm 0.00 in/hr0.0 mm/hr 0.00 in0.0 mm
12:27 PM 42.4°F5.8°C 29.5°F-1.4°C 60% 15.0 mph NNW24.1 kmh NNW 12.1 mph19.5 kmh 30.25 in1024.4 mb 0.00 in0.0 mm 0.00 in/hr0.0 mm/hr 0.00 in0.0 mm
12:22 PM 42.6°F5.9°C 29.7°F-1.3°C 60% 15.0 mph NNW24.1 kmh NNW 13.0 mph20.9 kmh 30.24 in1024.0 mb 0.00 in0.0 mm 0.00 in/hr0.0 mm/hr 0.00 in0.0 mm
12:17 PM 42.8°F6.0°C 29.5°F-1.4°C 59% 16.1 mph NW25.9 kmh NW 21.9 mph35.2 kmh 30.24 in1024.0 mb 0.00 in0.0 mm 0.00 in/hr0.0 mm/hr 0.00 in0.0 mm
12:12 PM 43.3°F6.3°C 28.8°F-1.8°C 56% 15.0 mph 24.1 kmh 10.1 mph16.3 kmh 30.24 in1024.0 mb 0.00 in0.0 mm 0.00 in/hr0.0 mm/hr 0.00 in0.0 mm
12:07 PM 43.3°F6.3°C 30.0°F-1.1°C 59% 13.0 mph NW20.9 kmh NW 13.0 mph20.9 kmh 30.23 in1023.7 mb 0.00 in0.0 mm 0.00 in/hr0.0 mm/hr 0.00 in0.0 mm
12:02 PM 43.0°F6.1°C 29.7°F-1.3°C 59% 13.0 mph NNW20.9 kmh NNW 17.0 mph27.4 kmh 30.23 in1023.7 mb 0.00 in0.0 mm 0.00 in/hr0.0 mm/hr 0.00 in0.0 mm
11:57 AM 43.2°F6.2°C 28.9°F-1.7°C 57% 12.1 mph NW19.5 kmh NW 17.0 mph27.4 kmh 30.22 in1023.4 mb 0.00 in0.0 mm 0.00 in/hr0.0 mm/hr 0.00 in0.0 mm
11:52 AM 43.3°F6.3°C 30.0°F-1.1°C 59% 12.1 mph NW19.5 kmh NW 12.1 mph19.5 kmh 30.22 in1023.4 mb 0.00 in0.0 mm 0.00 in/hr0.0 mm/hr 0.00 in0.0 mm
11:47 AM 43.0°F6.1°C 29.7°F-1.3°C 59% 12.1 mph NW19.5 kmh NW 15.0 mph24.1 kmh 30.22 in1023.4 mb 0.00 in0.0 mm 0.00 in/hr0.0 mm/hr 0.00 in0.0 mm
11:42 AM 43.0°F6.1°C 30.4°F-0.9°C 61% 10.1 mph NNW16.3 kmh NNW 10.1 mph16.3 kmh 30.22 in1023.4 mb 0.00 in0.0 mm 0.00 in/hr0.0 mm/hr 0.00 in0.0 mm
11:37 AM 43.0°F6.1°C 30.9°F-0.6°C 62% 11.0 mph NNW17.7 kmh NNW 12.1 mph19.5 kmh 30.22 in1023.4 mb 0.00 in0.0 mm 0.00 in/hr0.0 mm/hr 0.00 in0.0 mm
11:32 AM 43.2°F6.2°C 31.1°F-0.5°C 62% 11.0 mph WNW17.7 kmh WNW 14.1 mph22.7 kmh 30.21 in1023.0 mb 0.00 in0.0 mm 0.00 in/hr0.0 mm/hr 0.00 in0.0 mm
11:27 AM 43.2°F6.2°C 32.9°F0.5°C 67% 8.9 mph NW14.3 kmh NW 10.1 mph16.3 kmh 30.21 in1023.0 mb 0.00 in0.0 mm 0.00 in/hr0.0 mm/hr 0.00 in0.0 mm
11:22 AM 42.6°F5.9°C 32.0°F0.0°C 66% 10.1 mph NW16.3 kmh NW 11.0 mph17.7 kmh 30.21 in1023.0 mb 0.00 in0.0 mm 0.00 in/hr0.0 mm/hr 0.00 in0.0 mm
11:17 AM 42.3°F5.7°C 31.3°F-0.4°C 65% 10.1 mph NW16.3 kmh NW 8.9 mph14.3 kmh 30.20 in1022.7 mb 0.00 in0.0 mm 0.00 in/hr0.0 mm/hr 0.00 in0.0 mm
11:12 AM 42.3°F5.7°C 31.6°F-0.2°C 66% 10.1 mph NW16.3 kmh NW 14.1 mph22.7 kmh 30.21 in1023.0 mb 0.00 in0.0 mm 0.00 in/hr0.0 mm/hr 0.00 in0.0 mm
11:07 AM 42.1°F5.6°C 32.0°F0.0°C 67% 10.1 mph NW16.3 kmh NW 11.0 mph17.7 kmh 30.20 in1022.7 mb 0.00 in0.0 mm 0.00 in/hr0.0 mm/hr 0.00 in0.0 mm
11:02 AM 42.1°F5.6°C 32.4°F0.2°C 68% 11.0 mph NW17.7 kmh NW 13.0 mph20.9 kmh 30.20 in1022.7 mb 0.00 in0.0 mm 0.00 in/hr0.0 mm/hr 0.00 in0.0 mm
10:57 AM 42.3°F5.7°C 32.5°F0.3°C 68% 12.1 mph NW19.5 kmh NW 12.1 mph19.5 kmh 30.20 in1022.7 mb 0.00 in0.0 mm 0.00 in/hr0.0 mm/hr 0.00 in0.0 mm
10:52 AM 42.6°F5.9°C 32.7°F0.4°C 68% 13.0 mph NW20.9 kmh NW 12.1 mph19.5 kmh 30.19 in1022.4 mb 0.00 in0.0 mm 0.00 in/hr0.0 mm/hr 0.00 in0.0 mm
10:47 AM 43.0°F6.1°C 32.4°F0.2°C 66% 13.0 mph WNW20.9 kmh WNW 12.1 mph19.5 kmh 30.19 in1022.4 mb 0.00 in0.0 mm 0.00 in/hr0.0 mm/hr 0.00 in0.0 mm
10:42 AM 43.5°F6.4°C 32.5°F0.3°C 65% 10.1 mph WNW16.3 kmh WNW 17.0 mph27.4 kmh 30.19 in1022.4 mb 0.00 in0.0 mm 0.00 in/hr0.0 mm/hr 0.00 in0.0 mm
10:37 AM 43.3°F6.3°C 32.7°F0.4°C 66% 11.0 mph WNW17.7 kmh WNW 16.1 mph25.9 kmh 30.19 in1022.4 mb 0.00 in0.0 mm 0.00 in/hr0.0 mm/hr 0.00 in0.0 mm
10:32 AM 43.5°F6.4°C 32.5°F0.3°C 65% 11.0 mph W17.7 kmh W 10.1 mph16.3 kmh 30.18 in1022.0 mb 0.00 in0.0 mm 0.00 in/hr0.0 mm/hr 0.00 in0.0 mm
10:27 AM 43.5°F6.4°C 32.9°F0.5°C 66% 8.1 mph W13.0 kmh W 13.0 mph20.9 kmh 30.18 in1022.0 mb 0.00 in0.0 mm 0.00 in/hr0.0 mm/hr 0.00 in0.0 mm
10:22 AM 43.5°F6.4°C 32.9°F0.5°C 66% 6.0 mph WNW9.7 kmh WNW 14.1 mph22.7 kmh 30.18 in1022.0 mb 0.00 in0.0 mm 0.00 in/hr0.0 mm/hr 0.00 in0.0 mm
10:17 AM 43.2°F6.2°C 32.5°F0.3°C 66% 6.9 mph NW11.1 kmh NW 2.0 mph3.2 kmh 30.18 in1022.0 mb 0.00 in0.0 mm 0.00 in/hr0.0 mm/hr 0.00 in0.0 mm
10:12 AM 43.0°F6.1°C 32.4°F0.2°C 66% 8.9 mph WNW14.3 kmh WNW 6.0 mph9.7 kmh 30.18 in1022.0 mb 0.00 in0.0 mm 0.00 in/hr0.0 mm/hr 0.00 in0.0 mm
10:07 AM 42.6°F5.9°C 32.4°F0.2°C 67% 10.1 mph NW16.3 kmh NW 10.1 mph16.3 kmh 30.18 in1022.0 mb 0.00 in0.0 mm 0.00 in/hr0.0 mm/hr 0.00 in0.0 mm
10:02 AM 42.4°F5.8°C 32.2°F0.1°C 67% 10.1 mph NW16.3 kmh NW 10.1 mph16.3 kmh 30.17 in1021.7 mb 0.00 in0.0 mm 0.00 in/hr0.0 mm/hr 0.00 in0.0 mm
09:57 AM 42.4°F5.8°C 32.7°F0.4°C 68% 10.1 mph WNW16.3 kmh WNW 8.9 mph14.3 kmh 30.17 in1021.7 mb 0.00 in0.0 mm 0.00 in/hr0.0 mm/hr 0.00 in0.0 mm
09:52 AM 42.6°F5.9°C 32.7°F0.4°C 68% 8.9 mph NNW14.3 kmh NNW 11.0 mph17.7 kmh 30.17 in1021.7 mb 0.00 in0.0 mm 0.00 in/hr0.0 mm/hr 0.00 in0.0 mm
09:47 AM 42.8°F6.0°C 33.3°F0.7°C 69% 8.1 mph N13.0 kmh N 11.0 mph17.7 kmh 30.17 in1021.7 mb 0.00 in0.0 mm 0.00 in/hr0.0 mm/hr 0.00 in0.0 mm
09:42 AM 43.0°F6.1°C 33.4°F0.8°C 69% 8.1 mph NW13.0 kmh NW 11.0 mph17.7 kmh 30.17 in1021.7 mb 0.00 in0.0 mm 0.00 in/hr0.0 mm/hr 0.00 in0.0 mm
09:37 AM 43.2°F6.2°C 34.0°F1.1°C 70% 8.9 mph NNW14.3 kmh NNW 2.0 mph3.2 kmh 30.16 in1021.3 mb 0.00 in0.0 mm 0.00 in/hr0.0 mm/hr 0.00 in0.0 mm
09:32 AM 43.2°F6.2°C 34.3°F1.3°C 71% 8.9 mph NW14.3 kmh NW 10.1 mph16.3 kmh 30.16 in1021.3 mb 0.00 in0.0 mm 0.00 in/hr0.0 mm/hr 0.00 in0.0 mm
09:27 AM 43.0°F6.1°C 34.2°F1.2°C 71% 10.1 mph NW16.3 kmh NW 10.1 mph16.3 kmh 30.15 in1021.0 mb 0.00 in0.0 mm 0.00 in/hr0.0 mm/hr 0.00 in0.0 mm
09:22 AM 43.3°F6.3°C 34.5°F1.4°C 71% 10.1 mph WNW16.3 kmh WNW 11.0 mph17.7 kmh 30.15 in1021.0 mb 0.00 in0.0 mm 0.00 in/hr0.0 mm/hr 0.00 in0.0 mm
09:17 AM 43.5°F6.4°C 35.1°F1.7°C 72% 10.1 mph W16.3 kmh W 12.1 mph19.5 kmh 30.15 in1021.0 mb 0.00 in0.0 mm 0.00 in/hr0.0 mm/hr 0.00 in0.0 mm
09:12 AM 43.2°F6.2°C 35.4°F1.9°C 74% 10.1 mph NW16.3 kmh NW 6.0 mph9.7 kmh 30.15 in1021.0 mb 0.00 in0.0 mm 0.00 in/hr0.0 mm/hr 0.00 in0.0 mm
09:07 AM 42.6°F5.9°C 35.2°F1.8°C 75% 10.1 mph W16.3 kmh W 13.0 mph20.9 kmh 30.15 in1021.0 mb 0.00 in0.0 mm 0.00 in/hr0.0 mm/hr 0.00 in0.0 mm
09:02 AM 42.3°F5.7°C 34.9°F1.6°C 75% 11.0 mph W17.7 kmh W 11.0 mph17.7 kmh 30.15 in1021.0 mb 0.00 in0.0 mm 0.00 in/hr0.0 mm/hr 0.00 in0.0 mm
08:57 AM 41.9°F5.5°C 35.2°F1.8°C 77% 10.1 mph W16.3 kmh W 11.0 mph17.7 kmh 30.15 in1021.0 mb 0.00 in0.0 mm 0.00 in/hr0.0 mm/hr 0.00 in0.0 mm
08:52 AM 41.4°F5.2°C 35.1°F1.7°C 78% 8.9 mph WNW14.3 kmh WNW 13.0 mph20.9 kmh 30.14 in1020.7 mb 0.00 in0.0 mm 0.00 in/hr0.0 mm/hr 0.00 in0.0 mm
08:47 AM 40.8°F4.9°C 34.9°F1.6°C 79% 8.9 mph NW14.3 kmh NW 8.1 mph13.0 kmh 30.14 in1020.7 mb 0.00 in0.0 mm 0.00 in/hr0.0 mm/hr 0.00 in0.0 mm
08:42 AM 40.6°F4.8°C 34.7°F1.5°C 79% 8.9 mph NW14.3 kmh NW 10.1 mph16.3 kmh 30.14 in1020.7 mb 0.00 in0.0 mm 0.00 in/hr0.0 mm/hr 0.00 in0.0 mm
08:37 AM 40.6°F4.8°C 34.7°F1.5°C 79% 10.1 mph NW16.3 kmh NW 13.0 mph20.9 kmh 30.14 in1020.7 mb 0.00 in0.0 mm 0.00 in/hr0.0 mm/hr 0.00 in0.0 mm
08:32 AM 40.6°F4.8°C 34.7°F1.5°C 79% 10.1 mph WNW16.3 kmh WNW 10.1 mph16.3 kmh 30.14 in1020.7 mb 0.00 in0.0 mm 0.00 in/hr0.0 mm/hr 0.00 in0.0 mm
08:27 AM 40.8°F4.9°C 34.5°F1.4°C 78% 10.1 mph W16.3 kmh W 14.1 mph22.7 kmh 30.14 in1020.7 mb 0.00 in0.0 mm 0.00 in/hr0.0 mm/hr 0.00 in0.0 mm
08:22 AM 41.2°F5.1°C 34.9°F1.6°C 78% 8.9 mph NW14.3 kmh NW 8.9 mph14.3 kmh 30.14 in1020.7 mb 0.00 in0.0 mm 0.00 in/hr0.0 mm/hr 0.00 in0.0 mm
08:17 AM 41.4°F5.2°C 34.7°F1.5°C 77% 6.9 mph NW11.1 kmh NW 8.1 mph13.0 kmh 30.13 in1020.3 mb 0.00 in0.0 mm 0.00 in/hr0.0 mm/hr 0.00 in0.0 mm
08:12 AM 41.4°F5.2°C 34.7°F1.5°C 77% 6.0 mph NW9.7 kmh NW 2.9 mph4.7 kmh 30.13 in1020.3 mb 0.00 in0.0 mm 0.00 in/hr0.0 mm/hr 0.00 in0.0 mm
08:07 AM 41.4°F5.2°C 35.4°F1.9°C 79% 2.9 mph NNW4.7 kmh NNW 4.9 mph7.9 kmh 30.13 in1020.3 mb 0.00 in0.0 mm 0.00 in/hr0.0 mm/hr 0.00 in0.0 mm
08:02 AM 40.8°F4.9°C 35.1°F1.7°C 80% 2.9 mph WNW4.7 kmh WNW 4.0 mph6.4 kmh 30.13 in1020.3 mb 0.00 in0.0 mm 0.00 in/hr0.0 mm/hr 0.00 in0.0 mm
07:57 AM 40.5°F4.7°C 35.1°F1.7°C 81% 2.9 mph W4.7 kmh W 2.9 mph4.7 kmh 30.13 in1020.3 mb 0.00 in0.0 mm 0.00 in/hr0.0 mm/hr 0.00 in0.0 mm
07:52 AM 39.9°F4.4°C 34.5°F1.4°C 81% 2.9 mph W4.7 kmh W 2.9 mph4.7 kmh 30.13 in1020.3 mb 0.00 in0.0 mm 0.00 in/hr0.0 mm/hr 0.00 in0.0 mm
07:47 AM 39.6°F4.2°C 34.2°F1.2°C 81% 4.9 mph WSW7.9 kmh WSW 2.9 mph4.7 kmh 30.13 in1020.3 mb 0.00 in0.0 mm 0.00 in/hr0.0 mm/hr 0.00 in0.0 mm
07:42 AM 39.6°F4.2°C 34.2°F1.2°C 81% 6.0 mph W9.7 kmh W 2.0 mph3.2 kmh 30.13 in1020.3 mb 0.00 in0.0 mm 0.00 in/hr0.0 mm/hr 0.00 in0.0 mm
07:37 AM 39.6°F4.2°C 34.2°F1.2°C 81% 6.9 mph W11.1 kmh W 6.0 mph9.7 kmh 30.13 in1020.3 mb 0.00 in0.0 mm 0.00 in/hr0.0 mm/hr 0.00 in0.0 mm
07:32 AM 39.4°F4.1°C 34.0°F1.1°C 81% 6.0 mph NW9.7 kmh NW 4.0 mph6.4 kmh 30.13 in1020.3 mb 0.00 in0.0 mm 0.00 in/hr0.0 mm/hr 0.00 in0.0 mm
07:27 AM 39.0°F3.9°C 33.6°F0.9°C 81% 6.0 mph NW9.7 kmh NW 4.9 mph7.9 kmh 30.13 in1020.3 mb 0.00 in0.0 mm 0.00 in/hr0.0 mm/hr 0.00 in0.0 mm
07:22 AM 38.8°F3.8°C 33.8°F1.0°C 82% 6.9 mph WNW11.1 kmh WNW 6.9 mph11.1 kmh 30.12 in1020.0 mb 0.00 in0.0 mm 0.00 in/hr0.0 mm/hr 0.00 in0.0 mm
07:17 AM 38.7°F3.7°C 33.6°F0.9°C 82% 6.0 mph W9.7 kmh W 8.1 mph13.0 kmh 30.12 in1020.0 mb 0.00 in0.0 mm 0.00 in/hr0.0 mm/hr 0.00 in0.0 mm
07:12 AM 38.5°F3.6°C 33.4°F0.8°C 82% 4.0 mph WNW6.4 kmh WNW 2.9 mph4.7 kmh 30.12 in1020.0 mb 0.00 in0.0 mm 0.00 in/hr0.0 mm/hr 0.00 in0.0 mm
07:07 AM 38.3°F3.5°C 33.3°F0.7°C 82% 4.9 mph WSW7.9 kmh WSW 4.0 mph6.4 kmh 30.12 in1020.0 mb 0.00 in0.0 mm 0.00 in/hr0.0 mm/hr 0.00 in0.0 mm
07:02 AM 38.1°F3.4°C 32.7°F0.4°C 81% 6.9 mph WNW11.1 kmh WNW 4.0 mph6.4 kmh 30.11 in1019.6 mb 0.00 in0.0 mm 0.00 in/hr0.0 mm/hr 0.00 in0.0 mm
06:57 AM 38.1°F3.4°C 32.5°F0.3°C 80% 6.0 mph W9.7 kmh W 6.9 mph11.1 kmh 30.11 in1019.6 mb 0.00 in0.0 mm 0.00 in/hr0.0 mm/hr 0.00 in0.0 mm
06:52 AM 38.3°F3.5°C 32.7°F0.4°C 80% 4.9 mph WNW7.9 kmh WNW 6.9 mph11.1 kmh 30.12 in1020.0 mb 0.00 in0.0 mm 0.00 in/hr0.0 mm/hr 0.00 in0.0 mm
06:47 AM 38.5°F3.6°C 32.5°F0.3°C 79% 4.0 mph WSW6.4 kmh WSW 4.0 mph6.4 kmh 30.11 in1019.6 mb 0.00 in0.0 mm 0.00 in/hr0.0 mm/hr 0.00 in0.0 mm
06:42 AM 38.5°F3.6°C 32.5°F0.3°C 79% 2.9 mph WSW4.7 kmh WSW 4.0 mph6.4 kmh 30.11 in1019.6 mb 0.00 in0.0 mm 0.00 in/hr0.0 mm/hr 0.00 in0.0 mm
06:37 AM 38.5°F3.6°C 32.2°F0.1°C 78% 4.0 mph W6.4 kmh W 2.9 mph4.7 kmh 30.10 in1019.3 mb 0.00 in0.0 mm 0.00 in/hr0.0 mm/hr 0.00 in0.0 mm
06:32 AM 38.7°F3.7°C 32.4°F0.2°C 78% 2.9 mph WNW4.7 kmh WNW 2.9 mph4.7 kmh 30.10 in1019.3 mb 0.00 in0.0 mm 0.00 in/hr0.0 mm/hr 0.00 in0.0 mm
06:27 AM 38.7°F3.7°C 32.0°F0.0°C 77% 2.0 mph WNW3.2 kmh WNW 2.0 mph3.2 kmh 30.10 in1019.3 mb 0.00 in0.0 mm 0.00 in/hr0.0 mm/hr 0.00 in0.0 mm
06:22 AM 38.7°F3.7°C 32.0°F0.0°C 77% 2.0 mph WNW3.2 kmh WNW 0.9 mph1.4 kmh 30.09 in1019.0 mb 0.00 in0.0 mm 0.00 in/hr0.0 mm/hr 0.00 in0.0 mm
06:17 AM 38.7°F3.7°C 32.0°F0.0°C 77% 2.9 mph WNW4.7 kmh WNW 2.0 mph3.2 kmh 30.09 in1019.0 mb 0.00 in0.0 mm 0.00 in/hr0.0 mm/hr 0.00 in0.0 mm
06:12 AM 38.8°F3.8°C 32.2°F0.1°C 77% 4.0 mph WNW6.4 kmh WNW 2.0 mph3.2 kmh 30.09 in1019.0 mb 0.00 in0.0 mm 0.00 in/hr0.0 mm/hr 0.00 in0.0 mm
06:07 AM 38.7°F3.7°C 31.8°F-0.1°C 76% 4.0 mph WNW6.4 kmh WNW 4.0 mph6.4 kmh 30.09 in1019.0 mb 0.00 in0.0 mm 0.00 in/hr0.0 mm/hr 0.00 in0.0 mm
06:02 AM 38.7°F3.7°C 31.8°F-0.1°C 76% 2.9 mph WNW4.7 kmh WNW 4.9 mph7.9 kmh 30.09 in1019.0 mb 0.00 in0.0 mm 0.00 in/hr0.0 mm/hr 0.00 in0.0 mm
05:57 AM 38.7°F3.7°C 31.8°F-0.1°C 76% 2.0 mph WNW3.2 kmh WNW 2.0 mph3.2 kmh 30.09 in1019.0 mb 0.00 in0.0 mm 0.00 in/hr0.0 mm/hr 0.00 in0.0 mm
05:52 AM 38.7°F3.7°C 31.5°F-0.3°C 75% 2.0 mph WSW3.2 kmh WSW -- 30.08 in1018.6 mb 0.00 in0.0 mm 0.00 in/hr0.0 mm/hr 0.00 in0.0 mm
05:47 AM 38.7°F3.7°C 31.5°F-0.3°C 75% 2.9 mph WNW4.7 kmh WNW 2.9 mph4.7 kmh 30.08 in1018.6 mb 0.00 in0.0 mm 0.00 in/hr0.0 mm/hr 0.00 in0.0 mm
05:42 AM 38.7°F3.7°C 31.1°F-0.5°C 74% 4.0 mph W6.4 kmh W 0.9 mph1.4 kmh 30.08 in1018.6 mb 0.00 in0.0 mm 0.00 in/hr0.0 mm/hr 0.00 in0.0 mm
05:37 AM 38.7°F3.7°C 31.1°F-0.5°C 74% 4.0 mph W6.4 kmh W 6.0 mph9.7 kmh 30.08 in1018.6 mb 0.00 in0.0 mm 0.00 in/hr0.0 mm/hr 0.00 in0.0 mm
05:32 AM 38.7°F3.7°C 30.7°F-0.7°C 73% 2.9 mph WNW4.7 kmh WNW 2.9 mph4.7 kmh 30.08 in1018.6 mb 0.00 in0.0 mm 0.00 in/hr0.0 mm/hr 0.00 in0.0 mm
05:27 AM 38.8°F3.8°C 30.9°F-0.6°C 73% 2.9 mph W4.7 kmh W 2.0 mph3.2 kmh 30.08 in1018.6 mb 0.00 in0.0 mm 0.00 in/hr0.0 mm/hr 0.00 in0.0 mm
05:22 AM 38.8°F3.8°C 30.9°F-0.6°C 73% 2.9 mph W4.7 kmh W 2.0 mph3.2 kmh 30.08 in1018.6 mb 0.00 in0.0 mm 0.00 in/hr0.0 mm/hr 0.00 in0.0 mm
05:17 AM 38.7°F3.7°C 30.4°F-0.9°C 72% 2.9 mph WSW4.7 kmh WSW 2.9 mph4.7 kmh 30.08 in1018.6 mb 0.00 in0.0 mm 0.00 in/hr0.0 mm/hr 0.00 in0.0 mm
05:12 AM 38.7°F3.7°C 30.0°F-1.1°C 71% 2.0 mph WNW3.2 kmh WNW 2.9 mph4.7 kmh 30.08 in1018.6 mb 0.00 in0.0 mm 0.00 in/hr0.0 mm/hr 0.00 in0.0 mm
05:07 AM 38.7°F3.7°C 29.7°F-1.3°C 70% 2.9 mph W4.7 kmh W 0.9 mph1.4 kmh 30.08 in1018.6 mb 0.00 in0.0 mm 0.00 in/hr0.0 mm/hr 0.00 in0.0 mm
05:02 AM 38.5°F3.6°C 29.5°F-1.4°C 70% 2.9 mph W4.7 kmh W 6.0 mph9.7 kmh 30.08 in1018.6 mb 0.00 in0.0 mm 0.00 in/hr0.0 mm/hr 0.00 in0.0 mm
04:57 AM 38.3°F3.5°C 29.3°F-1.5°C 70% 2.9 mph W4.7 kmh W 2.9 mph4.7 kmh 30.08 in1018.6 mb 0.00 in0.0 mm 0.00 in/hr0.0 mm/hr 0.00 in0.0 mm
04:52 AM 38.1°F3.4°C 29.1°F-1.6°C 70% 2.0 mph WSW3.2 kmh WSW 4.0 mph6.4 kmh 30.08 in1018.6 mb 0.00 in0.0 mm 0.00 in/hr0.0 mm/hr 0.00 in0.0 mm
04:47 AM 37.9°F3.3°C 29.1°F-1.6°C 70% 0.9 mph W1.4 kmh W 6.0 mph9.7 kmh 30.08 in1018.6 mb 0.00 in0.0 mm 0.00 in/hr0.0 mm/hr 0.00 in0.0 mm
04:42 AM 37.8°F3.2°C 28.9°F-1.7°C 70% 2.0 mph W3.2 kmh W -- 30.07 in1018.3 mb 0.00 in0.0 mm 0.00 in/hr0.0 mm/hr 0.00 in0.0 mm
04:37 AM 37.6°F3.1°C 29.1°F-1.6°C 71% 2.0 mph W3.2 kmh W 2.0 mph3.2 kmh 30.08 in1018.6 mb 0.00 in0.0 mm 0.00 in/hr0.0 mm/hr 0.00 in0.0 mm
04:32 AM 37.4°F3.0°C 28.9°F-1.7°C 71% 2.0 mph WSW3.2 kmh WSW 2.0 mph3.2 kmh 30.08 in1018.6 mb 0.00 in0.0 mm 0.00 in/hr0.0 mm/hr 0.00 in0.0 mm
04:27 AM 37.0°F2.8°C 28.6°F-1.9°C 71% 2.0 mph WSW3.2 kmh WSW 2.9 mph4.7 kmh 30.08 in1018.6 mb 0.00 in0.0 mm 0.00 in/hr0.0 mm/hr 0.00 in0.0 mm
04:22 AM 37.0°F2.8°C 28.9°F-1.7°C 72% 0.9 mph WNW1.4 kmh WNW 4.0 mph6.4 kmh 30.08 in1018.6 mb 0.00 in0.0 mm 0.00 in/hr0.0 mm/hr 0.00 in0.0 mm
04:17 AM 37.0°F2.8°C 29.1°F-1.6°C 73% 0.9 mph WNW1.4 kmh WNW 2.0 mph3.2 kmh 30.08 in1018.6 mb 0.00 in0.0 mm 0.00 in/hr0.0 mm/hr 0.00 in0.0 mm
04:12 AM 37.0°F2.8°C 28.9°F-1.7°C 72% Calm Calm 0.9 mph1.4 kmh 30.08 in1018.6 mb 0.00 in0.0 mm 0.00 in/hr0.0 mm/hr 0.00 in0.0 mm
04:07 AM 37.0°F2.8°C 28.6°F-1.9°C 71% Calm Calm 0.9 mph1.4 kmh 30.08 in1018.6 mb 0.00 in0.0 mm 0.00 in/hr0.0 mm/hr 0.00 in0.0 mm
04:02 AM 37.0°F2.8°C 28.6°F-1.9°C 71% Calm Calm -- 30.08 in1018.6 mb 0.00 in0.0 mm 0.00 in/hr0.0 mm/hr 0.00 in0.0 mm
03:57 AM 37.0°F2.8°C 28.2°F-2.1°C 70% Calm Calm -- 30.08 in1018.6 mb 0.00 in0.0 mm 0.00 in/hr0.0 mm/hr 0.00 in0.0 mm
03:52 AM 37.0°F2.8°C 28.2°F-2.1°C 70% Calm Calm -- 30.08 in1018.6 mb 0.00 in0.0 mm 0.00 in/hr0.0 mm/hr 0.00 in0.0 mm
03:47 AM 37.0°F2.8°C 28.2°F-2.1°C 70% 0.9 mph WNW1.4 kmh WNW -- 30.08 in1018.6 mb 0.00 in0.0 mm 0.00 in/hr0.0 mm/hr 0.00 in0.0 mm
03:42 AM 36.9°F2.7°C 28.0°F-2.2°C 70% 0.9 mph WNW1.4 kmh WNW -- 30.08 in1018.6 mb 0.00 in0.0 mm 0.00 in/hr0.0 mm/hr 0.00 in0.0 mm
03:37 AM 36.9°F2.7°C 27.7°F-2.4°C 69% 0.9 mph WNW1.4 kmh WNW 0.9 mph1.4 kmh 30.08 in1018.6 mb 0.00 in0.0 mm 0.00 in/hr0.0 mm/hr 0.00 in0.0 mm
03:32 AM 36.7°F2.6°C 28.2°F-2.1°C 71% 2.0 mph WNW3.2 kmh WNW 2.0 mph3.2 kmh 30.09 in1019.0 mb 0.00 in0.0 mm 0.00 in/hr0.0 mm/hr 0.00 in0.0 mm
03:27 AM 36.9°F2.7°C 28.8°F-1.8°C 72% 2.9 mph WNW4.7 kmh WNW 2.0 mph3.2 kmh 30.09 in1019.0 mb 0.00 in0.0 mm 0.00 in/hr0.0 mm/hr 0.00 in0.0 mm
03:22 AM 37.0°F2.8°C 29.1°F-1.6°C 73% 0.9 mph WNW1.4 kmh WNW 4.9 mph7.9 kmh 30.08 in1018.6 mb 0.00 in0.0 mm 0.00 in/hr0.0 mm/hr 0.00 in0.0 mm
03:17 AM 37.0°F2.8°C 28.9°F-1.7°C 72% Calm Calm 0.9 mph1.4 kmh 30.07 in1018.3 mb 0.00 in0.0 mm 0.00 in/hr0.0 mm/hr 0.00 in0.0 mm
03:12 AM 37.2°F2.9°C 29.1°F-1.6°C 72% Calm Calm -- 30.07 in1018.3 mb 0.00 in0.0 mm 0.00 in/hr0.0 mm/hr 0.00 in0.0 mm
03:07 AM 37.4°F3.0°C 28.9°F-1.7°C 71% Calm Calm -- 30.07 in1018.3 mb 0.00 in0.0 mm 0.00 in/hr0.0 mm/hr 0.00 in0.0 mm
03:02 AM 37.6°F3.1°C 29.1°F-1.6°C 71% Calm Calm -- 30.07 in1018.3 mb 0.00 in0.0 mm 0.00 in/hr0.0 mm/hr 0.00 in0.0 mm
02:57 AM 37.6°F3.1°C 28.8°F-1.8°C 70% Calm Calm -- 30.08 in1018.6 mb 0.00 in0.0 mm 0.00 in/hr0.0 mm/hr 0.00 in0.0 mm
02:52 AM 37.8°F3.2°C 28.9°F-1.7°C 70% Calm Calm -- 30.08 in1018.6 mb 0.00 in0.0 mm 0.00 in/hr0.0 mm/hr 0.00 in0.0 mm
02:47 AM 37.8°F3.2°C 28.6°F-1.9°C 69% Calm Calm -- 30.08 in1018.6 mb 0.00 in0.0 mm 0.00 in/hr0.0 mm/hr 0.00 in0.0 mm
02:42 AM 37.8°F3.2°C 28.2°F-2.1°C 68% Calm Calm -- 30.08 in1018.6 mb 0.00 in0.0 mm 0.00 in/hr0.0 mm/hr 0.00 in0.0 mm
02:37 AM 37.8°F3.2°C 28.2°F-2.1°C 68% 0.9 mph SE1.4 kmh SE -- 30.08 in1018.6 mb 0.00 in0.0 mm 0.00 in/hr0.0 mm/hr 0.00 in0.0 mm
02:32 AM 37.9°F3.3°C 28.4°F-2.0°C 68% 0.9 mph SE1.4 kmh SE 0.9 mph1.4 kmh 30.08 in1018.6 mb 0.00 in0.0 mm 0.00 in/hr0.0 mm/hr 0.00 in0.0 mm
02:27 AM 37.9°F3.3°C 28.4°F-2.0°C 68% Calm Calm -- 30.08 in1018.6 mb 0.00 in0.0 mm 0.00 in/hr0.0 mm/hr 0.00 in0.0 mm
02:22 AM 37.9°F3.3°C 28.0°F-2.2°C 67% Calm Calm -- 30.09 in1019.0 mb 0.00 in0.0 mm 0.00 in/hr0.0 mm/hr 0.00 in0.0 mm
02:17 AM 37.9°F3.3°C 28.4°F-2.0°C 68% Calm Calm -- 30.09 in1019.0 mb 0.00 in0.0 mm 0.00 in/hr0.0 mm/hr 0.00 in0.0 mm
02:12 AM 37.9°F3.3°C 28.8°F-1.8°C 69% Calm Calm -- 30.09 in1019.0 mb 0.00 in0.0 mm 0.00 in/hr0.0 mm/hr 0.00 in0.0 mm
02:07 AM 37.9°F3.3°C 28.4°F-2.0°C 68% Calm Calm -- 30.09 in1019.0 mb 0.00 in0.0 mm 0.00 in/hr0.0 mm/hr 0.00 in0.0 mm
02:02 AM 38.1°F3.4°C 28.2°F-2.1°C 67% Calm Calm -- 30.10 in1019.3 mb 0.00 in0.0 mm 0.00 in/hr0.0 mm/hr 0.00 in0.0 mm
01:57 AM 38.1°F3.4°C 28.2°F-2.1°C 67% Calm Calm -- 30.09 in1019.0 mb 0.00 in0.0 mm 0.00 in/hr0.0 mm/hr 0.00 in0.0 mm
01:52 AM 38.1°F3.4°C 28.2°F-2.1°C 67% Calm Calm -- 30.09 in1019.0 mb 0.00 in0.0 mm 0.00 in/hr0.0 mm/hr 0.00 in0.0 mm
01:47 AM 38.3°F3.5°C 27.9°F-2.3°C 66% Calm Calm -- 30.09 in1019.0 mb 0.00 in0.0 mm 0.00 in/hr0.0 mm/hr 0.00 in0.0 mm
01:42 AM 38.1°F3.4°C 27.3°F-2.6°C 65% Calm Calm -- 30.09 in1019.0 mb 0.00 in0.0 mm 0.00 in/hr0.0 mm/hr 0.00 in0.0 mm
01:37 AM 38.1°F3.4°C 27.0°F-2.8°C 64% Calm Calm -- 30.10 in1019.3 mb 0.00 in0.0 mm 0.00 in/hr0.0 mm/hr 0.00 in0.0 mm
01:32 AM 38.1°F3.4°C 27.0°F-2.8°C 64% Calm Calm -- 30.10 in1019.3 mb 0.00 in0.0 mm 0.00 in/hr0.0 mm/hr 0.00 in0.0 mm
01:27 AM 38.1°F3.4°C 26.6°F-3.0°C 63% Calm Calm 0.9 mph1.4 kmh 30.10 in1019.3 mb 0.00 in0.0 mm 0.00 in/hr0.0 mm/hr 0.00 in0.0 mm
01:22 AM 38.1°F3.4°C 26.6°F-3.0°C 63% Calm Calm -- 30.10 in1019.3 mb 0.00 in0.0 mm 0.00 in/hr0.0 mm/hr 0.00 in0.0 mm
01:17 AM 38.1°F3.4°C 27.0°F-2.8°C 64% Calm Calm -- 30.10 in1019.3 mb 0.00 in0.0 mm 0.00 in/hr0.0 mm/hr 0.00 in0.0 mm
01:12 AM 38.1°F3.4°C 27.0°F-2.8°C 64% 0.9 mph SE1.4 kmh SE -- 30.10 in1019.3 mb 0.00 in0.0 mm 0.00 in/hr0.0 mm/hr 0.00 in0.0 mm
01:07 AM 38.1°F3.4°C 26.6°F-3.0°C 63% 0.9 mph SE1.4 kmh SE -- 30.10 in1019.3 mb 0.00 in0.0 mm 0.00 in/hr0.0 mm/hr 0.00 in0.0 mm
01:02 AM 38.3°F3.5°C 26.8°F-2.9°C 63% 2.0 mph SE3.2 kmh SE 0.9 mph1.4 kmh 30.11 in1019.6 mb 0.00 in0.0 mm 0.00 in/hr0.0 mm/hr 0.00 in0.0 mm
12:57 AM 38.5°F3.6°C 26.6°F-3.0°C 62% 2.0 mph SE3.2 kmh SE 0.9 mph1.4 kmh 30.11 in1019.6 mb 0.00 in0.0 mm 0.00 in/hr0.0 mm/hr 0.00 in0.0 mm
12:52 AM 38.7°F3.7°C 26.8°F-2.9°C 62% 2.0 mph SE3.2 kmh SE 0.9 mph1.4 kmh 30.11 in1019.6 mb 0.00 in0.0 mm 0.00 in/hr0.0 mm/hr 0.00 in0.0 mm
12:47 AM 38.8°F3.8°C 27.3°F-2.6°C 63% 0.9 mph SE1.4 kmh SE 2.0 mph3.2 kmh 30.11 in1019.6 mb 0.00 in0.0 mm 0.00 in/hr0.0 mm/hr 0.00 in0.0 mm
12:42 AM 39.4°F4.1°C 27.9°F-2.3°C 63% Calm Calm 0.9 mph1.4 kmh 30.11 in1019.6 mb 0.00 in0.0 mm 0.00 in/hr0.0 mm/hr 0.00 in0.0 mm
12:37 AM 39.7°F4.3°C 27.3°F-2.6°C 61% Calm Calm -- 30.11 in1019.6 mb 0.00 in0.0 mm 0.00 in/hr0.0 mm/hr 0.00 in0.0 mm
12:32 AM 39.7°F4.3°C 27.0°F-2.8°C 60% Calm Calm -- 30.11 in1019.6 mb 0.00 in0.0 mm 0.00 in/hr0.0 mm/hr 0.00 in0.0 mm
12:27 AM 39.9°F4.4°C 26.8°F-2.9°C 59% Calm Calm -- 30.11 in1019.6 mb 0.00 in0.0 mm 0.00 in/hr0.0 mm/hr 0.00 in0.0 mm
12:22 AM 39.9°F4.4°C 26.8°F-2.9°C 59% Calm Calm -- 30.11 in1019.6 mb 0.00 in0.0 mm 0.00 in/hr0.0 mm/hr 0.00 in0.0 mm
12:17 AM 39.9°F4.4°C 25.9°F-3.4°C 57% Calm Calm -- 30.11 in1019.6 mb 0.00 in0.0 mm 0.00 in/hr0.0 mm/hr 0.00 in0.0 mm
12:12 AM 39.9°F4.4°C 25.9°F-3.4°C 57% 0.9 mph NE1.4 kmh NE -- 30.12 in1020.0 mb 0.00 in0.0 mm 0.00 in/hr0.0 mm/hr 0.00 in0.0 mm
12:07 AM 39.7°F4.3°C 25.7°F-3.5°C 57% 0.9 mph NE1.4 kmh NE -- 30.12 in1020.0 mb 0.00 in0.0 mm 0.00 in/hr0.0 mm/hr 0.00 in0.0 mm
12:02 AM 39.7°F4.3°C 26.2°F-3.2°C 58% 0.9 mph NNE1.4 kmh NNE 2.0 mph3.2 kmh 30.12 in1020.0 mb 0.00 in0.0 mm 0.00 in/hr0.0 mm/hr 0.00 in0.0 mm